sensor_id;sensor_type;location;lat;lon;timestamp;pressure;altitude;pressure_sealevel;temperature;humidity
15694;BME280;7947;48.834;9.132;2023-04-21T00:01:55;97846.50;;;6.06;89.67
15694;BME280;7947;48.834;9.132;2023-04-21T00:04:59;97838.25;;;6.02;88.00
15694;BME280;7947;48.834;9.132;2023-04-21T00:08:04;97849.88;;;5.96;88.44
15694;BME280;7947;48.834;9.132;2023-04-21T00:11:07;97850.16;;;5.95;88.40
15694;BME280;7947;48.834;9.132;2023-04-21T00:14:11;97847.22;;;5.96;89.98
15694;BME280;7947;48.834;9.132;2023-04-21T00:17:13;97849.09;;;5.96;88.87
15694;BME280;7947;48.834;9.132;2023-04-21T00:20:16;97848.00;;;5.92;88.83
15694;BME280;7947;48.834;9.132;2023-04-21T00:23:21;97843.72;;;5.91;88.04
15694;BME280;7947;48.834;9.132;2023-04-21T00:26:24;97834.63;;;5.87;88.77
15694;BME280;7947;48.834;9.132;2023-04-21T00:29:26;97836.41;;;5.81;89.24
15694;BME280;7947;48.834;9.132;2023-04-21T00:32:29;97831.34;;;5.80;90.19
15694;BME280;7947;48.834;9.132;2023-04-21T00:35:32;97833.97;;;5.75;89.86
15694;BME280;7947;48.834;9.132;2023-04-21T00:38:36;97839.50;;;5.73;90.20
15694;BME280;7947;48.834;9.132;2023-04-21T00:41:40;97834.81;;;5.80;89.46
15694;BME280;7947;48.834;9.132;2023-04-21T00:44:42;97829.50;;;5.80;89.34
15694;BME280;7947;48.834;9.132;2023-04-21T00:47:46;97821.44;;;5.75;89.35
15694;BME280;7947;48.834;9.132;2023-04-21T00:50:48;97821.50;;;5.80;90.51
15694;BME280;7947;48.834;9.132;2023-04-21T00:53:53;97828.94;;;5.78;91.04
15694;BME280;7947;48.834;9.132;2023-04-21T00:56:57;97817.22;;;5.79;90.77
15694;BME280;7947;48.834;9.132;2023-04-21T01:00:03;97822.28;;;5.81;90.94
15694;BME280;7947;48.834;9.132;2023-04-21T01:03:08;97813.53;;;5.80;90.62
15694;BME280;7947;48.834;9.132;2023-04-21T01:06:11;97822.81;;;5.78;90.56
15694;BME280;7947;48.834;9.132;2023-04-21T01:09:15;97825.72;;;5.76;91.51
15694;BME280;7947;48.834;9.132;2023-04-21T01:12:19;97811.91;;;5.79;90.59
15694;BME280;7947;48.834;9.132;2023-04-21T01:15:22;97824.97;;;5.81;89.83
15694;BME280;7947;48.834;9.132;2023-04-21T01:18:28;97814.28;;;5.76;89.88
15694;BME280;7947;48.834;9.132;2023-04-21T01:21:37;97811.06;;;5.74;90.10
15694;BME280;7947;48.834;9.132;2023-04-21T01:24:42;97799.13;;;5.76;90.49
15694;BME280;7947;48.834;9.132;2023-04-21T01:27:47;97805.88;;;5.84;89.47
15694;BME280;7947;48.834;9.132;2023-04-21T01:30:50;97810.88;;;5.80;89.21
15694;BME280;7947;48.834;9.132;2023-04-21T01:33:54;97806.88;;;5.83;87.94
15694;BME280;7947;48.834;9.132;2023-04-21T01:36:58;97807.97;;;5.82;89.38
15694;BME280;7947;48.834;9.132;2023-04-21T01:40:03;97816.47;;;5.79;87.89
15694;BME280;7947;48.834;9.132;2023-04-21T01:43:06;97803.63;;;5.76;87.38
15694;BME280;7947;48.834;9.132;2023-04-21T01:46:09;97816.13;;;5.75;86.84
15694;BME280;7947;48.834;9.132;2023-04-21T01:49:12;97816.56;;;5.67;86.55
15694;BME280;7947;48.834;9.132;2023-04-21T01:52:16;97815.38;;;5.53;86.69
15694;BME280;7947;48.834;9.132;2023-04-21T01:55:19;97822.19;;;5.44;87.52
15694;BME280;7947;48.834;9.132;2023-04-21T01:58:22;97811.50;;;5.39;87.89
15694;BME280;7947;48.834;9.132;2023-04-21T02:01:25;97821.56;;;5.37;87.49
15694;BME280;7947;48.834;9.132;2023-04-21T02:04:28;97818.53;;;5.28;88.70
15694;BME280;7947;48.834;9.132;2023-04-21T02:07:32;97817.06;;;5.37;88.38
15694;BME280;7947;48.834;9.132;2023-04-21T02:10:35;97815.44;;;5.36;88.33
15694;BME280;7947;48.834;9.132;2023-04-21T02:13:38;97814.34;;;5.32;88.15
15694;BME280;7947;48.834;9.132;2023-04-21T02:16:41;97821.44;;;5.27;88.63
15694;BME280;7947;48.834;9.132;2023-04-21T02:19:44;97819.56;;;5.22;88.59
15694;BME280;7947;48.834;9.132;2023-04-21T02:22:50;97824.63;;;5.24;87.44
15694;BME280;7947;48.834;9.132;2023-04-21T02:25:53;97815.34;;;5.26;86.56
15694;BME280;7947;48.834;9.132;2023-04-21T02:28:56;97813.13;;;5.18;85.40
15694;BME280;7947;48.834;9.132;2023-04-21T02:31:59;97805.28;;;5.07;86.45
15694;BME280;7947;48.834;9.132;2023-04-21T02:35:18;97808.94;;;5.01;87.29
15694;BME280;7947;48.834;9.132;2023-04-21T02:38:22;97806.25;;;5.01;86.35
15694;BME280;7947;48.834;9.132;2023-04-21T02:41:28;97814.09;;;4.91;86.66
15694;BME280;7947;48.834;9.132;2023-04-21T02:44:31;97816.75;;;4.91;86.11
15694;BME280;7947;48.834;9.132;2023-04-21T02:47:33;97823.34;;;4.88;85.72
15694;BME280;7947;48.834;9.132;2023-04-21T02:50:36;97826.00;;;4.88;84.55
15694;BME280;7947;48.834;9.132;2023-04-21T02:53:42;97817.00;;;4.89;85.38
15694;BME280;7947;48.834;9.132;2023-04-21T02:56:44;97820.94;;;4.87;86.58
15694;BME280;7947;48.834;9.132;2023-04-21T02:59:47;97823.34;;;4.88;86.61
15694;BME280;7947;48.834;9.132;2023-04-21T03:02:50;97823.06;;;4.85;86.38
15694;BME280;7947;48.834;9.132;2023-04-21T03:05:57;97810.63;;;4.90;85.17
15694;BME280;7947;48.834;9.132;2023-04-21T03:09:01;97807.97;;;4.90;84.70
15694;BME280;7947;48.834;9.132;2023-04-21T03:12:04;97809.50;;;4.86;85.32
15694;BME280;7947;48.834;9.132;2023-04-21T03:15:07;97814.22;;;4.79;85.70
15694;BME280;7947;48.834;9.132;2023-04-21T03:18:10;97811.50;;;4.74;86.19
15694;BME280;7947;48.834;9.132;2023-04-21T03:21:12;97799.50;;;4.72;86.83
15694;BME280;7947;48.834;9.132;2023-04-21T03:24:16;97784.31;;;4.67;87.67
15694;BME280;7947;48.834;9.132;2023-04-21T03:27:19;97791.53;;;4.72;87.47
15694;BME280;7947;48.834;9.132;2023-04-21T03:30:23;97796.91;;;4.77;88.15
15694;BME280;7947;48.834;9.132;2023-04-21T03:33:26;97793.47;;;4.76;89.10
15694;BME280;7947;48.834;9.132;2023-04-21T03:36:29;97792.97;;;4.79;88.49
15694;BME280;7947;48.834;9.132;2023-04-21T03:39:33;97798.53;;;4.78;89.01
15694;BME280;7947;48.834;9.132;2023-04-21T03:42:36;97794.56;;;4.80;88.13
15694;BME280;7947;48.834;9.132;2023-04-21T03:45:39;97801.97;;;4.78;87.57
15694;BME280;7947;48.834;9.132;2023-04-21T03:48:42;97799.69;;;4.87;87.48
15694;BME280;7947;48.834;9.132;2023-04-21T03:51:45;97790.00;;;4.76;87.87
15694;BME280;7947;48.834;9.132;2023-04-21T03:54:51;97788.56;;;4.68;88.40
15694;BME280;7947;48.834;9.132;2023-04-21T03:57:54;97804.00;;;4.71;88.41
15694;BME280;7947;48.834;9.132;2023-04-21T04:00:57;97806.81;;;4.81;89.17
15694;BME280;7947;48.834;9.132;2023-04-21T04:03:59;97806.97;;;4.75;88.33
15694;BME280;7947;48.834;9.132;2023-04-21T04:07:03;97809.47;;;4.65;88.69
15694;BME280;7947;48.834;9.132;2023-04-21T04:10:09;97811.50;;;4.57;90.01
15694;BME280;7947;48.834;9.132;2023-04-21T04:13:12;97805.94;;;4.76;90.89
15694;BME280;7947;48.834;9.132;2023-04-21T04:16:16;97809.94;;;4.78;90.05
15694;BME280;7947;48.834;9.132;2023-04-21T04:19:19;97801.59;;;4.70;89.88
15694;BME280;7947;48.834;9.132;2023-04-21T04:22:22;97801.66;;;4.75;89.45
15694;BME280;7947;48.834;9.132;2023-04-21T04:25:26;97802.16;;;4.72;89.35
15694;BME280;7947;48.834;9.132;2023-04-21T04:28:29;97813.91;;;4.76;89.28
15694;BME280;7947;48.834;9.132;2023-04-21T04:31:32;97814.88;;;4.70;88.67
15694;BME280;7947;48.834;9.132;2023-04-21T04:34:35;97816.66;;;4.64;88.62
15694;BME280;7947;48.834;9.132;2023-04-21T04:37:38;97803.69;;;4.68;88.50
15694;BME280;7947;48.834;9.132;2023-04-21T04:40:43;97806.59;;;4.66;88.73
15694;BME280;7947;48.834;9.132;2023-04-21T04:43:46;97811.56;;;4.79;89.57
15694;BME280;7947;48.834;9.132;2023-04-21T04:46:49;97808.66;;;4.81;89.02
15694;BME280;7947;48.834;9.132;2023-04-21T04:49:53;97806.25;;;4.79;89.07
15694;BME280;7947;48.834;9.132;2023-04-21T04:52:55;97806.81;;;4.81;89.16
15694;BME280;7947;48.834;9.132;2023-04-21T04:55:59;97815.13;;;4.90;90.19
15694;BME280;7947;48.834;9.132;2023-04-21T04:59:02;97823.50;;;4.98;89.66
15694;BME280;7947;48.834;9.132;2023-04-21T05:02:06;97825.28;;;4.93;89.43
15694;BME280;7947;48.834;9.132;2023-04-21T05:05:09;97826.28;;;4.87;89.83
15694;BME280;7947;48.834;9.132;2023-04-21T05:08:12;97833.50;;;4.91;90.70
15694;BME280;7947;48.834;9.132;2023-04-21T05:11:19;97840.25;;;4.99;89.82
15694;BME280;7947;48.834;9.132;2023-04-21T05:14:22;97847.47;;;5.03;91.02
15694;BME280;7947;48.834;9.132;2023-04-21T05:17:25;97849.66;;;5.06;91.38
15694;BME280;7947;48.834;9.132;2023-04-21T05:20:29;97848.16;;;5.15;90.70
15694;BME280;7947;48.834;9.132;2023-04-21T05:23:32;97850.56;;;5.17;91.06
15694;BME280;7947;48.834;9.132;2023-04-21T05:26:36;97851.50;;;5.27;91.76
15694;BME280;7947;48.834;9.132;2023-04-21T05:29:39;97845.47;;;5.32;92.37
15694;BME280;7947;48.834;9.132;2023-04-21T05:32:42;97848.00;;;5.43;93.28
15694;BME280;7947;48.834;9.132;2023-04-21T05:35:44;97846.78;;;5.56;92.92
15694;BME280;7947;48.834;9.132;2023-04-21T05:38:47;97853.59;;;5.69;93.16
15694;BME280;7947;48.834;9.132;2023-04-21T05:41:51;97849.97;;;5.80;93.79
15694;BME280;7947;48.834;9.132;2023-04-21T05:44:54;97861.25;;;5.87;93.66
15694;BME280;7947;48.834;9.132;2023-04-21T05:47:57;97867.66;;;5.91;93.21
15694;BME280;7947;48.834;9.132;2023-04-21T05:51:07;97861.34;;;5.97;92.66
15694;BME280;7947;48.834;9.132;2023-04-21T05:54:09;97865.41;;;6.04;92.50
15694;BME280;7947;48.834;9.132;2023-04-21T05:57:14;97847.88;;;6.08;92.53
15694;BME280;7947;48.834;9.132;2023-04-21T06:00:18;97841.81;;;6.13;92.95
15694;BME280;7947;48.834;9.132;2023-04-21T06:03:21;97834.94;;;6.22;92.80
15694;BME280;7947;48.834;9.132;2023-04-21T06:06:24;97836.88;;;6.31;93.69
15694;BME280;7947;48.834;9.132;2023-04-21T06:09:27;97834.03;;;6.38;93.14
15694;BME280;7947;48.834;9.132;2023-04-21T06:12:31;97832.50;;;6.47;93.89
15694;BME280;7947;48.834;9.132;2023-04-21T06:15:34;97827.78;;;6.59;93.87
15694;BME280;7947;48.834;9.132;2023-04-21T06:18:37;97835.84;;;6.69;93.52
15694;BME280;7947;48.834;9.132;2023-04-21T06:21:39;97815.94;;;6.82;94.51
15694;BME280;7947;48.834;9.132;2023-04-21T06:24:42;97822.69;;;6.94;94.03
15694;BME280;7947;48.834;9.132;2023-04-21T06:27:46;97815.50;;;7.05;93.39
15694;BME280;7947;48.834;9.132;2023-04-21T06:30:49;97824.66;;;7.14;93.00
15694;BME280;7947;48.834;9.132;2023-04-21T06:33:52;97828.72;;;7.32;92.73
15694;BME280;7947;48.834;9.132;2023-04-21T06:36:55;97828.00;;;7.61;92.44
15694;BME280;7947;48.834;9.132;2023-04-21T06:39:57;97821.69;;;8.17;91.06
15694;BME280;7947;48.834;9.132;2023-04-21T06:43:01;97823.81;;;8.86;88.64
15694;BME280;7947;48.834;9.132;2023-04-21T06:46:04;97828.88;;;8.97;85.42
15694;BME280;7947;48.834;9.132;2023-04-21T06:49:07;97832.06;;;8.94;85.11
15694;BME280;7947;48.834;9.132;2023-04-21T06:52:10;97829.97;;;8.71;85.36
15694;BME280;7947;48.834;9.132;2023-04-21T06:55:13;97822.00;;;8.51;86.35
15694;BME280;7947;48.834;9.132;2023-04-21T06:58:17;97821.19;;;8.41;87.27
15694;BME280;7947;48.834;9.132;2023-04-21T07:01:22;97821.47;;;8.34;88.32
15694;BME280;7947;48.834;9.132;2023-04-21T07:04:26;97821.44;;;8.29;88.98
15694;BME280;7947;48.834;9.132;2023-04-21T07:07:32;97817.19;;;8.33;89.03
15694;BME280;7947;48.834;9.132;2023-04-21T07:10:35;97821.75;;;8.48;89.44
15694;BME280;7947;48.834;9.132;2023-04-21T07:13:39;97819.84;;;8.58;89.42
15694;BME280;7947;48.834;9.132;2023-04-21T07:16:42;97819.28;;;8.76;89.61
15694;BME280;7947;48.834;9.132;2023-04-21T07:19:45;97816.59;;;8.81;88.49
15694;BME280;7947;48.834;9.132;2023-04-21T07:22:48;97815.78;;;8.81;88.03
15694;BME280;7947;48.834;9.132;2023-04-21T07:25:50;97816.03;;;8.89;88.53
15694;BME280;7947;48.834;9.132;2023-04-21T07:28:55;97814.41;;;8.98;87.73
15694;BME280;7947;48.834;9.132;2023-04-21T07:31:59;97811.19;;;9.06;86.66
15694;BME280;7947;48.834;9.132;2023-04-21T07:35:02;97802.31;;;9.21;86.13
15694;BME280;7947;48.834;9.132;2023-04-21T07:38:05;97805.13;;;9.45;85.95
15694;BME280;7947;48.834;9.132;2023-04-21T07:41:08;97803.44;;;9.64;86.00
15694;BME280;7947;48.834;9.132;2023-04-21T07:44:13;97799.06;;;9.78;84.40
15694;BME280;7947;48.834;9.132;2023-04-21T07:47:15;97795.16;;;10.04;83.23
15694;BME280;7947;48.834;9.132;2023-04-21T07:50:18;97792.38;;;10.19;82.10
15694;BME280;7947;48.834;9.132;2023-04-21T07:53:21;97794.41;;;10.32;81.20
15694;BME280;7947;48.834;9.132;2023-04-21T07:56:24;97796.34;;;10.27;81.31
15694;BME280;7947;48.834;9.132;2023-04-21T07:59:28;97781.44;;;10.44;81.67
15694;BME280;7947;48.834;9.132;2023-04-21T08:02:31;97786.66;;;10.59;81.95
15694;BME280;7947;48.834;9.132;2023-04-21T08:05:34;97794.00;;;10.77;79.36
15694;BME280;7947;48.834;9.132;2023-04-21T08:08:41;97787.78;;;11.06;78.85
15694;BME280;7947;48.834;9.132;2023-04-21T08:11:44;97786.47;;;11.27;78.96
15694;BME280;7947;48.834;9.132;2023-04-21T08:14:49;97776.41;;;11.37;76.99
15694;BME280;7947;48.834;9.132;2023-04-21T08:17:51;97772.66;;;11.57;78.62
15694;BME280;7947;48.834;9.132;2023-04-21T08:20:55;97773.69;;;11.79;76.70
15694;BME280;7947;48.834;9.132;2023-04-21T08:23:58;97775.66;;;11.93;75.57
15694;BME280;7947;48.834;9.132;2023-04-21T08:27:02;97779.75;;;11.90;74.96
15694;BME280;7947;48.834;9.132;2023-04-21T08:30:07;97786.19;;;12.08;74.63
15694;BME280;7947;48.834;9.132;2023-04-21T08:33:10;97770.72;;;12.32;72.27
15694;BME280;7947;48.834;9.132;2023-04-21T08:36:14;97769.59;;;12.51;72.59
15694;BME280;7947;48.834;9.132;2023-04-21T08:39:29;97770.94;;;12.67;73.59
15694;BME280;7947;48.834;9.132;2023-04-21T08:42:33;97757.69;;;12.98;74.87
15694;BME280;7947;48.834;9.132;2023-04-21T08:45:39;97759.00;;;13.28;73.75
15694;BME280;7947;48.834;9.132;2023-04-21T08:48:42;97760.56;;;13.56;71.22
15694;BME280;7947;48.834;9.132;2023-04-21T08:51:47;97755.31;;;13.51;67.88
15694;BME280;7947;48.834;9.132;2023-04-21T08:54:50;97763.25;;;13.56;70.07
15694;BME280;7947;48.834;9.132;2023-04-21T08:57:53;97764.25;;;13.60;68.93
15694;BME280;7947;48.834;9.132;2023-04-21T09:00:57;97760.41;;;13.75;68.17
15694;BME280;7947;48.834;9.132;2023-04-21T09:04:15;97765.03;;;13.74;69.78
15694;BME280;7947;48.834;9.132;2023-04-21T09:07:32;97755.91;;;13.84;68.90
15694;BME280;7947;48.834;9.132;2023-04-21T09:10:42;97763.66;;;13.99;68.33
15694;BME280;7947;48.834;9.132;2023-04-21T09:13:45;97766.66;;;13.97;68.32
15694;BME280;7947;48.834;9.132;2023-04-21T09:16:58;97759.97;;;14.17;65.86
15694;BME280;7947;48.834;9.132;2023-04-21T09:20:12;97755.97;;;14.28;69.24
15694;BME280;7947;48.834;9.132;2023-04-21T09:23:15;97749.94;;;14.31;66.44
15694;BME280;7947;48.834;9.132;2023-04-21T09:26:20;97746.78;;;14.15;65.85
15694;BME280;7947;48.834;9.132;2023-04-21T09:29:24;97742.28;;;14.24;65.20
15694;BME280;7947;48.834;9.132;2023-04-21T09:32:28;97749.53;;;14.37;66.40
15694;BME280;7947;48.834;9.132;2023-04-21T09:35:32;97741.78;;;14.22;66.03
15694;BME280;7947;48.834;9.132;2023-04-21T09:38:35;97740.59;;;14.28;66.45
15694;BME280;7947;48.834;9.132;2023-04-21T09:41:38;97746.13;;;14.10;65.48
15694;BME280;7947;48.834;9.132;2023-04-21T09:44:41;97739.97;;;13.96;66.42
15694;BME280;7947;48.834;9.132;2023-04-21T09:47:59;97740.66;;;14.23;67.95
15694;BME280;7947;48.834;9.132;2023-04-21T09:51:03;97738.34;;;14.30;67.26
15694;BME280;7947;48.834;9.132;2023-04-21T09:54:14;97738.34;;;14.53;65.86
15694;BME280;7947;48.834;9.132;2023-04-21T09:57:24;97736.97;;;14.64;65.23
15694;BME280;7947;48.834;9.132;2023-04-21T10:00:27;97739.56;;;14.77;65.20
15694;BME280;7947;48.834;9.132;2023-04-21T10:03:34;97729.31;;;14.96;65.37
15694;BME280;7947;48.834;9.132;2023-04-21T10:06:40;97722.91;;;15.23;68.37
15694;BME280;7947;48.834;9.132;2023-04-21T10:09:46;97723.59;;;15.46;68.03
15694;BME280;7947;48.834;9.132;2023-04-21T10:12:50;97721.09;;;15.75;66.93
15694;BME280;7947;48.834;9.132;2023-04-21T10:16:00;97717.75;;;15.78;63.29
15694;BME280;7947;48.834;9.132;2023-04-21T10:19:22;97708.84;;;15.86;63.90
15694;BME280;7947;48.834;9.132;2023-04-21T10:22:26;97702.47;;;15.99;65.67
15694;BME280;7947;48.834;9.132;2023-04-21T10:25:31;97704.06;;;16.08;62.71
15694;BME280;7947;48.834;9.132;2023-04-21T10:28:45;97694.47;;;16.28;62.77
15694;BME280;7947;48.834;9.132;2023-04-21T10:31:50;97687.91;;;16.38;62.60
15694;BME280;7947;48.834;9.132;2023-04-21T10:34:55;97700.13;;;16.61;64.78
15694;BME280;7947;48.834;9.132;2023-04-21T10:37:58;97700.25;;;16.73;59.66
15694;BME280;7947;48.834;9.132;2023-04-21T10:41:26;97701.25;;;16.60;59.81
15694;BME280;7947;48.834;9.132;2023-04-21T10:44:29;97703.16;;;16.68;60.88
15694;BME280;7947;48.834;9.132;2023-04-21T10:47:36;97692.56;;;16.83;60.72
15694;BME280;7947;48.834;9.132;2023-04-21T10:50:40;97693.00;;;16.94;61.85
15694;BME280;7947;48.834;9.132;2023-04-21T10:53:44;97686.41;;;17.03;59.63
15694;BME280;7947;48.834;9.132;2023-04-21T10:56:48;97688.44;;;16.86;59.76
15694;BME280;7947;48.834;9.132;2023-04-21T10:59:53;97687.53;;;17.02;62.68
15694;BME280;7947;48.834;9.132;2023-04-21T11:02:58;97682.50;;;17.22;60.42
15694;BME280;7947;48.834;9.132;2023-04-21T11:06:14;97674.84;;;17.44;62.84
15694;BME280;7947;48.834;9.132;2023-04-21T11:09:18;97684.94;;;17.64;61.05
15694;BME280;7947;48.834;9.132;2023-04-21T11:12:21;97680.91;;;17.70;58.00
15694;BME280;7947;48.834;9.132;2023-04-21T11:15:24;97674.94;;;17.56;58.00
15694;BME280;7947;48.834;9.132;2023-04-21T11:18:37;97682.94;;;17.73;60.71
15694;BME280;7947;48.834;9.132;2023-04-21T11:21:41;97673.47;;;18.00;60.55
15694;BME280;7947;48.834;9.132;2023-04-21T11:24:44;97671.75;;;17.95;59.04
15694;BME280;7947;48.834;9.132;2023-04-21T11:27:56;97667.91;;;17.96;59.91
15694;BME280;7947;48.834;9.132;2023-04-21T11:31:00;97671.63;;;17.71;57.66
15694;BME280;7947;48.834;9.132;2023-04-21T11:34:04;97670.66;;;17.55;59.74
15694;BME280;7947;48.834;9.132;2023-04-21T11:37:13;97660.38;;;17.81;59.72
15694;BME280;7947;48.834;9.132;2023-04-21T11:40:17;97651.56;;;18.05;60.09
15694;BME280;7947;48.834;9.132;2023-04-21T11:43:20;97647.63;;;18.15;59.11
15694;BME280;7947;48.834;9.132;2023-04-21T11:46:24;97644.81;;;18.23;56.73
15694;BME280;7947;48.834;9.132;2023-04-21T11:49:28;97635.09;;;18.22;58.75
15694;BME280;7947;48.834;9.132;2023-04-21T11:52:33;97642.53;;;18.46;59.49
15694;BME280;7947;48.834;9.132;2023-04-21T11:55:41;97646.19;;;18.41;55.71
15694;BME280;7947;48.834;9.132;2023-04-21T11:58:44;97643.91;;;18.64;57.72
15694;BME280;7947;48.834;9.132;2023-04-21T12:01:50;97637.47;;;18.92;57.66
15694;BME280;7947;48.834;9.132;2023-04-21T12:04:57;97637.13;;;18.94;55.30
15694;BME280;7947;48.834;9.132;2023-04-21T12:08:02;97639.28;;;19.01;54.86
15694;BME280;7947;48.834;9.132;2023-04-21T12:11:06;97627.59;;;19.12;55.22
15694;BME280;7947;48.834;9.132;2023-04-21T12:14:09;97630.53;;;19.07;55.26
15694;BME280;7947;48.834;9.132;2023-04-21T12:17:12;97626.09;;;19.15;53.83
15694;BME280;7947;48.834;9.132;2023-04-21T12:20:15;97624.88;;;19.12;52.51
15694;BME280;7947;48.834;9.132;2023-04-21T12:23:20;97625.88;;;19.20;55.68
15694;BME280;7947;48.834;9.132;2023-04-21T12:26:22;97625.84;;;19.32;53.83
15694;BME280;7947;48.834;9.132;2023-04-21T12:29:25;97620.41;;;19.44;54.14
15694;BME280;7947;48.834;9.132;2023-04-21T12:32:28;97606.06;;;19.59;54.61
15694;BME280;7947;48.834;9.132;2023-04-21T12:35:34;97602.63;;;19.74;54.16
15694;BME280;7947;48.834;9.132;2023-04-21T12:38:38;97599.75;;;19.83;52.10
15694;BME280;7947;48.834;9.132;2023-04-21T12:41:41;97600.53;;;19.83;51.53
15694;BME280;7947;48.834;9.132;2023-04-21T12:44:44;97586.16;;;19.55;50.74
15694;BME280;7947;48.834;9.132;2023-04-21T12:47:47;97578.09;;;19.58;51.92
15694;BME280;7947;48.834;9.132;2023-04-21T12:50:50;97570.56;;;19.67;53.40
15694;BME280;7947;48.834;9.132;2023-04-21T12:53:54;97580.72;;;19.55;52.05
15694;BME280;7947;48.834;9.132;2023-04-21T12:56:56;97580.66;;;19.67;53.23
15694;BME280;7947;48.834;9.132;2023-04-21T12:59:59;97584.03;;;19.76;51.22
15694;BME280;7947;48.834;9.132;2023-04-21T13:03:02;97569.47;;;19.84;50.35
15694;BME280;7947;48.834;9.132;2023-04-21T13:06:07;97572.28;;;19.88;50.45
15694;BME280;7947;48.834;9.132;2023-04-21T13:09:12;97573.38;;;19.99;50.98
15694;BME280;7947;48.834;9.132;2023-04-21T13:12:14;97574.19;;;20.15;51.70
15694;BME280;7947;48.834;9.132;2023-04-21T13:15:20;97563.41;;;20.34;53.27
15694;BME280;7947;48.834;9.132;2023-04-21T13:18:22;97567.78;;;20.54;51.16
15694;BME280;7947;48.834;9.132;2023-04-21T13:21:25;97563.03;;;20.66;48.61
15694;BME280;7947;48.834;9.132;2023-04-21T13:24:29;97564.97;;;20.50;48.68
15694;BME280;7947;48.834;9.132;2023-04-21T13:27:32;97552.84;;;20.48;48.78
15694;BME280;7947;48.834;9.132;2023-04-21T13:30:38;97555.22;;;20.65;48.39
15694;BME280;7947;48.834;9.132;2023-04-21T13:33:41;97551.00;;;20.52;49.31
15694;BME280;7947;48.834;9.132;2023-04-21T13:36:44;97536.41;;;20.60;47.58
15694;BME280;7947;48.834;9.132;2023-04-21T13:39:49;97539.41;;;20.55;48.27
15694;BME280;7947;48.834;9.132;2023-04-21T13:42:52;97547.28;;;20.76;48.92
15694;BME280;7947;48.834;9.132;2023-04-21T13:45:56;97541.53;;;20.96;48.17
15694;BME280;7947;48.834;9.132;2023-04-21T13:48:59;97542.72;;;21.14;47.60
15694;BME280;7947;48.834;9.132;2023-04-21T13:52:01;97544.16;;;21.27;46.87
15694;BME280;7947;48.834;9.132;2023-04-21T13:55:07;97544.38;;;21.19;46.31
15694;BME280;7947;48.834;9.132;2023-04-21T13:58:09;97542.19;;;20.74;46.08
15694;BME280;7947;48.834;9.132;2023-04-21T14:01:13;97537.53;;;20.75;47.47
15694;BME280;7947;48.834;9.132;2023-04-21T14:04:16;97527.03;;;20.92;46.40
15694;BME280;7947;48.834;9.132;2023-04-21T14:07:21;97538.56;;;20.86;46.23
15694;BME280;7947;48.834;9.132;2023-04-21T14:10:28;97517.56;;;20.86;48.21
15694;BME280;7947;48.834;9.132;2023-04-21T14:13:31;97515.13;;;21.00;50.32
15694;BME280;7947;48.834;9.132;2023-04-21T14:16:45;97508.44;;;21.13;46.96
15694;BME280;7947;48.834;9.132;2023-04-21T14:19:49;97495.78;;;21.24;48.29
15694;BME280;7947;48.834;9.132;2023-04-21T14:22:55;97495.78;;;21.43;47.98
15694;BME280;7947;48.834;9.132;2023-04-21T14:26:02;97490.59;;;21.58;48.61
15694;BME280;7947;48.834;9.132;2023-04-21T14:29:05;97486.44;;;21.64;46.01
15694;BME280;7947;48.834;9.132;2023-04-21T14:32:08;97478.41;;;21.51;46.39
15694;BME280;7947;48.834;9.132;2023-04-21T14:35:11;97464.75;;;21.51;48.45
15694;BME280;7947;48.834;9.132;2023-04-21T14:38:14;97460.38;;;21.47;47.30
15694;BME280;7947;48.834;9.132;2023-04-21T14:41:18;97454.69;;;21.33;48.73
15694;BME280;7947;48.834;9.132;2023-04-21T14:44:21;97464.22;;;21.23;46.56
15694;BME280;7947;48.834;9.132;2023-04-21T14:47:24;97457.69;;;21.28;48.21
15694;BME280;7947;48.834;9.132;2023-04-21T14:50:27;97456.31;;;21.37;47.50
15694;BME280;7947;48.834;9.132;2023-04-21T14:53:30;97457.16;;;21.41;49.89
15694;BME280;7947;48.834;9.132;2023-04-21T14:56:34;97457.16;;;21.41;49.97
15694;BME280;7947;48.834;9.132;2023-04-21T14:59:37;97458.03;;;21.45;43.20
15694;BME280;7947;48.834;9.132;2023-04-21T15:02:40;97458.31;;;21.02;44.06
15694;BME280;7947;48.834;9.132;2023-04-21T15:05:43;97457.84;;;20.81;46.33
15694;BME280;7947;48.834;9.132;2023-04-21T15:08:46;97456.84;;;20.89;46.18
15694;BME280;7947;48.834;9.132;2023-04-21T15:11:51;97456.19;;;21.11;46.93
15694;BME280;7947;48.834;9.132;2023-04-21T15:14:55;97443.66;;;21.29;44.01
15694;BME280;7947;48.834;9.132;2023-04-21T15:17:58;97443.88;;;21.40;45.03
15694;BME280;7947;48.834;9.132;2023-04-21T15:21:01;97443.94;;;21.43;45.64
15694;BME280;7947;48.834;9.132;2023-04-21T15:24:04;97443.56;;;21.45;44.11
15694;BME280;7947;48.834;9.132;2023-04-21T15:27:08;97439.09;;;21.14;43.67
15694;BME280;7947;48.834;9.132;2023-04-21T15:30:12;97440.22;;;20.94;43.19
15694;BME280;7947;48.834;9.132;2023-04-21T15:33:14;97445.72;;;20.59;44.81
15694;BME280;7947;48.834;9.132;2023-04-21T15:36:17;97445.50;;;20.33;44.32
15694;BME280;7947;48.834;9.132;2023-04-21T15:39:20;97450.59;;;20.04;45.20
15694;BME280;7947;48.834;9.132;2023-04-21T15:42:24;97442.97;;;19.78;44.80
15694;BME280;7947;48.834;9.132;2023-04-21T15:45:27;97440.94;;;19.59;45.12
15694;BME280;7947;48.834;9.132;2023-04-21T15:48:30;97438.53;;;19.42;44.59
15694;BME280;7947;48.834;9.132;2023-04-21T15:51:33;97438.22;;;19.32;45.66
15694;BME280;7947;48.834;9.132;2023-04-21T15:54:36;97434.00;;;19.19;46.30
15694;BME280;7947;48.834;9.132;2023-04-21T15:57:41;97434.66;;;19.00;47.73
15694;BME280;7947;48.834;9.132;2023-04-21T16:00:44;97434.88;;;18.95;47.79
15694;BME280;7947;48.834;9.132;2023-04-21T16:03:47;97437.94;;;18.93;48.45
15694;BME280;7947;48.834;9.132;2023-04-21T16:06:50;97434.31;;;18.89;48.91
15694;BME280;7947;48.834;9.132;2023-04-21T16:09:53;97427.22;;;18.85;50.38
15694;BME280;7947;48.834;9.132;2023-04-21T16:12:57;97436.66;;;18.75;50.28
15694;BME280;7947;48.834;9.132;2023-04-21T16:16:00;97432.00;;;18.76;49.40
15694;BME280;7947;48.834;9.132;2023-04-21T16:19:03;97433.25;;;18.78;50.47
15694;BME280;7947;48.834;9.132;2023-04-21T16:22:05;97428.59;;;18.79;51.09
15694;BME280;7947;48.834;9.132;2023-04-21T16:25:09;97424.84;;;18.83;51.55
15694;BME280;7947;48.834;9.132;2023-04-21T16:28:16;97422.56;;;18.85;52.59
15694;BME280;7947;48.834;9.132;2023-04-21T16:31:19;97417.13;;;18.85;53.02
15694;BME280;7947;48.834;9.132;2023-04-21T16:34:22;97412.31;;;18.79;52.22